sensor_id;sensor_type;location;lat;lon;timestamp;pressure;altitude;pressure_sealevel;temperature;humidity
62789;BME280;66401;42.016;21.454;2023-03-25T00:00:58;98027.75;;;13.79;57.73
62789;BME280;66401;42.016;21.454;2023-03-25T00:03:25;98026.38;;;13.76;58.03
62789;BME280;66401;42.016;21.454;2023-03-25T00:05:55;98026.00;;;13.72;58.02
62789;BME280;66401;42.016;21.454;2023-03-25T00:08:25;98019.81;;;13.67;57.81
62789;BME280;66401;42.016;21.454;2023-03-25T00:10:55;98017.19;;;13.67;57.59
62789;BME280;66401;42.016;21.454;2023-03-25T00:13:21;98023.31;;;13.61;58.24
62789;BME280;66401;42.016;21.454;2023-03-25T00:15:48;98013.25;;;13.58;58.10
62789;BME280;66401;42.016;21.454;2023-03-25T00:18:19;97998.81;;;13.55;58.18
62789;BME280;66401;42.016;21.454;2023-03-25T00:20:45;97988.47;;;13.42;58.81
62789;BME280;66401;42.016;21.454;2023-03-25T00:23:14;97992.47;;;13.44;59.15
62789;BME280;66401;42.016;21.454;2023-03-25T00:25:40;97988.84;;;13.45;58.28
62789;BME280;66401;42.016;21.454;2023-03-25T00:28:13;97993.41;;;13.32;58.63
62789;BME280;66401;42.016;21.454;2023-03-25T00:30:43;97992.47;;;13.44;59.02
62789;BME280;66401;42.016;21.454;2023-03-25T00:33:10;98001.47;;;13.49;58.33
62789;BME280;66401;42.016;21.454;2023-03-25T00:35:36;97994.44;;;13.49;58.77
62789;BME280;66401;42.016;21.454;2023-03-25T00:38:04;98000.75;;;13.60;58.16
62789;BME280;66401;42.016;21.454;2023-03-25T00:40:32;97998.16;;;13.41;58.18
62789;BME280;66401;42.016;21.454;2023-03-25T00:43:01;98000.38;;;13.38;57.89
62789;BME280;66401;42.016;21.454;2023-03-25T00:45:27;97996.06;;;13.25;58.75
62789;BME280;66401;42.016;21.454;2023-03-25T00:47:53;97996.22;;;13.30;57.74
62789;BME280;66401;42.016;21.454;2023-03-25T00:50:18;97991.78;;;13.31;58.97
62789;BME280;66401;42.016;21.454;2023-03-25T00:52:45;97994.25;;;13.26;59.17
62789;BME280;66401;42.016;21.454;2023-03-25T00:55:11;97986.47;;;13.19;58.66
62789;BME280;66401;42.016;21.454;2023-03-25T00:57:36;97978.84;;;13.11;58.47
62789;BME280;66401;42.016;21.454;2023-03-25T01:00:04;97982.09;;;13.13;59.12
62789;BME280;66401;42.016;21.454;2023-03-25T01:02:31;97960.09;;;12.96;58.94
62789;BME280;66401;42.016;21.454;2023-03-25T01:04:58;97990.81;;;13.00;59.17
62789;BME280;66401;42.016;21.454;2023-03-25T01:07:24;97992.50;;;12.95;59.03
62789;BME280;66401;42.016;21.454;2023-03-25T01:09:54;97966.34;;;12.70;58.59
62789;BME280;66401;42.016;21.454;2023-03-25T01:12:20;97991.56;;;12.82;59.00
62789;BME280;66401;42.016;21.454;2023-03-25T01:14:45;97986.66;;;12.93;57.80
62789;BME280;66401;42.016;21.454;2023-03-25T01:17:11;97982.44;;;12.92;58.79
62789;BME280;66401;42.016;21.454;2023-03-25T01:19:36;97984.69;;;12.88;58.59
62789;BME280;66401;42.016;21.454;2023-03-25T01:22:02;97983.72;;;12.82;59.13
62789;BME280;66401;42.016;21.454;2023-03-25T01:24:28;97982.13;;;12.81;58.14
62789;BME280;66401;42.016;21.454;2023-03-25T01:26:53;97972.25;;;12.83;58.23
62789;BME280;66401;42.016;21.454;2023-03-25T01:29:20;97979.69;;;12.86;59.01
62789;BME280;66401;42.016;21.454;2023-03-25T01:31:45;97976.47;;;12.84;58.55
62789;BME280;66401;42.016;21.454;2023-03-25T01:34:11;97965.28;;;12.77;59.27
62789;BME280;66401;42.016;21.454;2023-03-25T01:36:37;97963.09;;;12.74;58.99
62789;BME280;66401;42.016;21.454;2023-03-25T01:39:05;97960.78;;;12.59;59.22
62789;BME280;66401;42.016;21.454;2023-03-25T01:41:32;97954.41;;;12.49;58.93
62789;BME280;66401;42.016;21.454;2023-03-25T01:45:02;97963.44;;;12.53;59.12
62789;BME280;66401;42.016;21.454;2023-03-25T01:46:54;97971.03;;;12.54;59.05
62789;BME280;66401;42.016;21.454;2023-03-25T01:49:29;97967.84;;;12.52;59.03
62789;BME280;66401;42.016;21.454;2023-03-25T01:52:04;97968.91;;;12.45;58.42
62789;BME280;66401;42.016;21.454;2023-03-25T01:54:31;97977.84;;;12.30;59.12
62789;BME280;66401;42.016;21.454;2023-03-25T01:56:57;97966.03;;;12.21;59.39
62789;BME280;66401;42.016;21.454;2023-03-25T01:59:25;97971.38;;;12.33;58.87
62789;BME280;66401;42.016;21.454;2023-03-25T02:01:53;97969.19;;;12.30;58.98
62789;BME280;66401;42.016;21.454;2023-03-25T02:04:44;97960.00;;;12.21;59.38
62789;BME280;66401;42.016;21.454;2023-03-25T02:07:16;97957.22;;;12.16;59.95
62789;BME280;66401;42.016;21.454;2023-03-25T02:09:43;97949.44;;;12.09;59.35
62789;BME280;66401;42.016;21.454;2023-03-25T02:12:08;97954.41;;;12.17;59.53
62789;BME280;66401;42.016;21.454;2023-03-25T02:14:34;97958.84;;;12.17;59.76
62789;BME280;66401;42.016;21.454;2023-03-25T02:23:04;97947.44;;;12.04;59.49
62789;BME280;66401;42.016;21.454;2023-03-25T02:31:07;97959.91;;;11.96;59.02
62789;BME280;66401;42.016;21.454;2023-03-25T02:39:27;97956.72;;;11.94;59.25
62789;BME280;66401;42.016;21.454;2023-03-25T02:47:14;97960.56;;;11.85;59.31
62789;BME280;66401;42.016;21.454;2023-03-25T02:49:45;97962.97;;;11.86;59.80
62789;BME280;66401;42.016;21.454;2023-03-25T02:54:43;97941.72;;;11.83;59.86
62789;BME280;66401;42.016;21.454;2023-03-25T02:57:14;97950.16;;;11.78;60.16
62789;BME280;66401;42.016;21.454;2023-03-25T02:59:44;97949.13;;;11.79;59.90
62789;BME280;66401;42.016;21.454;2023-03-25T03:02:11;97951.13;;;11.77;60.19
62789;BME280;66401;42.016;21.454;2023-03-25T03:04:49;97956.19;;;11.72;59.90
62789;BME280;66401;42.016;21.454;2023-03-25T03:07:36;97940.38;;;11.60;61.01
62789;BME280;66401;42.016;21.454;2023-03-25T03:13:23;97948.16;;;11.80;60.29
62789;BME280;66401;42.016;21.454;2023-03-25T03:19:04;97942.16;;;11.66;60.99
62789;BME280;66401;42.016;21.454;2023-03-25T03:21:46;97938.94;;;11.64;60.32
62789;BME280;66401;42.016;21.454;2023-03-25T03:24:37;97934.94;;;11.62;60.04
62789;BME280;66401;42.016;21.454;2023-03-25T03:27:15;97942.16;;;11.66;59.91
62789;BME280;66401;42.016;21.454;2023-03-25T03:29:56;97950.59;;;11.68;59.71
62789;BME280;66401;42.016;21.454;2023-03-25T03:32:40;97948.19;;;11.60;61.05
62789;BME280;66401;42.016;21.454;2023-03-25T03:35:17;97945.53;;;11.73;59.65
62789;BME280;66401;42.016;21.454;2023-03-25T03:37:56;97944.16;;;11.64;60.48
62789;BME280;66401;42.016;21.454;2023-03-25T03:40:26;97945.31;;;11.75;59.74
62789;BME280;66401;42.016;21.454;2023-03-25T03:43:06;97942.94;;;11.67;60.46
62789;BME280;66401;42.016;21.454;2023-03-25T03:45:38;97946.59;;;11.59;60.99
62789;BME280;66401;42.016;21.454;2023-03-25T03:48:11;97945.31;;;11.75;60.38
62789;BME280;66401;42.016;21.454;2023-03-25T03:50:52;97946.53;;;11.72;59.96
62789;BME280;66401;42.016;21.454;2023-03-25T03:53:26;97942.19;;;11.60;60.63
62789;BME280;66401;42.016;21.454;2023-03-25T03:56:04;97948.38;;;11.65;60.44
62789;BME280;66401;42.016;21.454;2023-03-25T03:58:35;97954.88;;;11.43;60.46
62789;BME280;66401;42.016;21.454;2023-03-25T04:01:04;97956.69;;;11.36;61.13
62789;BME280;66401;42.016;21.454;2023-03-25T04:06:43;97962.06;;;11.47;60.21
62789;BME280;66401;42.016;21.454;2023-03-25T04:11:40;97976.53;;;11.50;59.44
62789;BME280;66401;42.016;21.454;2023-03-25T04:14:08;97981.53;;;11.45;60.76
62789;BME280;66401;42.016;21.454;2023-03-25T04:16:35;97974.72;;;11.44;60.71
62789;BME280;66401;42.016;21.454;2023-03-25T04:19:03;97971.53;;;11.29;60.71
62789;BME280;66401;42.016;21.454;2023-03-25T04:21:30;97968.75;;;11.30;60.26
62789;BME280;66401;42.016;21.454;2023-03-25T04:23:55;97955.50;;;11.32;61.01
62789;BME280;66401;42.016;21.454;2023-03-25T04:26:28;97963.53;;;11.30;61.41
62789;BME280;66401;42.016;21.454;2023-03-25T04:28:59;97959.69;;;11.39;60.91
62789;BME280;66401;42.016;21.454;2023-03-25T04:31:26;97965.31;;;11.36;60.62
62789;BME280;66401;42.016;21.454;2023-03-25T04:33:55;97976.34;;;11.25;61.33
62789;BME280;66401;42.016;21.454;2023-03-25T04:36:22;97971.13;;;11.18;61.09
62789;BME280;66401;42.016;21.454;2023-03-25T04:38:48;97979.97;;;11.24;61.93
62789;BME280;66401;42.016;21.454;2023-03-25T04:41:13;97980.97;;;11.23;61.96
62789;BME280;66401;42.016;21.454;2023-03-25T04:43:40;97985.34;;;11.42;61.10
62789;BME280;66401;42.016;21.454;2023-03-25T04:46:06;97963.94;;;11.21;61.18
62789;BME280;66401;42.016;21.454;2023-03-25T04:48:34;97986.78;;;11.32;60.73
62789;BME280;66401;42.016;21.454;2023-03-25T04:51:06;97985.16;;;11.37;60.96
62789;BME280;66401;42.016;21.454;2023-03-25T04:53:35;97985.19;;;11.31;61.36
62789;BME280;66401;42.016;21.454;2023-03-25T04:56:00;97986.41;;;11.22;61.07
62789;BME280;66401;42.016;21.454;2023-03-25T04:58:26;97987.19;;;11.15;61.24
62789;BME280;66401;42.016;21.454;2023-03-25T05:00:51;97983.41;;;11.11;61.84
62789;BME280;66401;42.016;21.454;2023-03-25T05:03:18;97979.56;;;11.07;61.53
62789;BME280;66401;42.016;21.454;2023-03-25T05:05:49;97980.34;;;11.28;61.14
62789;BME280;66401;42.016;21.454;2023-03-25T05:08:16;97989.78;;;11.29;60.92
62789;BME280;66401;42.016;21.454;2023-03-25T05:10:41;97988.00;;;11.29;61.27
62789;BME280;66401;42.016;21.454;2023-03-25T05:13:07;97987.78;;;11.31;61.02
62789;BME280;66401;42.016;21.454;2023-03-25T05:15:34;97979.75;;;11.32;60.86
62789;BME280;66401;42.016;21.454;2023-03-25T05:18:12;97992.75;;;11.52;60.99
62789;BME280;66401;42.016;21.454;2023-03-25T05:20:43;97991.59;;;11.41;60.52
62789;BME280;66401;42.016;21.454;2023-03-25T05:23:10;98004.00;;;11.59;60.98
62789;BME280;66401;42.016;21.454;2023-03-25T05:25:47;97994.31;;;11.66;59.87
62789;BME280;66401;42.016;21.454;2023-03-25T05:28:13;97964.03;;;11.65;59.73
62789;BME280;66401;42.016;21.454;2023-03-25T05:30:40;97988.69;;;11.83;60.40
62789;BME280;66401;42.016;21.454;2023-03-25T05:33:12;97994.47;;;11.98;59.46
62789;BME280;66401;42.016;21.454;2023-03-25T05:35:39;97987.25;;;11.93;60.69
62789;BME280;66401;42.016;21.454;2023-03-25T05:38:05;97991.00;;;12.04;59.54
62789;BME280;66401;42.016;21.454;2023-03-25T05:40:33;97996.59;;;12.14;59.99
62789;BME280;66401;42.016;21.454;2023-03-25T05:42:59;97985.69;;;12.24;59.38
62789;BME280;66401;42.016;21.454;2023-03-25T05:45:24;97995.91;;;12.32;58.43
62789;BME280;66401;42.016;21.454;2023-03-25T05:47:50;97992.63;;;12.43;58.79
62789;BME280;66401;42.016;21.454;2023-03-25T05:50:16;98001.69;;;12.41;59.58
62789;BME280;66401;42.016;21.454;2023-03-25T05:52:42;97998.47;;;12.45;58.41
62789;BME280;66401;42.016;21.454;2023-03-25T05:55:14;98003.22;;;12.55;57.90
62789;BME280;66401;42.016;21.454;2023-03-25T05:57:39;97999.66;;;12.43;59.24
62789;BME280;66401;42.016;21.454;2023-03-25T06:00:06;98000.09;;;12.40;59.47
62789;BME280;66401;42.016;21.454;2023-03-25T06:02:33;98001.78;;;12.21;59.79
62789;BME280;66401;42.016;21.454;2023-03-25T06:05:05;98000.91;;;12.33;59.48
62789;BME280;66401;42.016;21.454;2023-03-25T06:07:31;97999.50;;;12.38;58.82
62789;BME280;66401;42.016;21.454;2023-03-25T06:09:57;97988.50;;;12.29;59.79
62789;BME280;66401;42.016;21.454;2023-03-25T06:12:23;97994.16;;;12.26;60.13
62789;BME280;66401;42.016;21.454;2023-03-25T06:14:51;97991.31;;;12.27;60.10
62789;BME280;66401;42.016;21.454;2023-03-25T06:17:19;97990.44;;;12.40;60.03
62789;BME280;66401;42.016;21.454;2023-03-25T06:19:49;97989.06;;;12.31;60.49
62789;BME280;66401;42.016;21.454;2023-03-25T06:22:14;97980.41;;;12.37;60.73
62789;BME280;66401;42.016;21.454;2023-03-25T06:24:41;97976.41;;;12.35;60.41
62789;BME280;66401;42.016;21.454;2023-03-25T06:27:11;97990.41;;;12.47;60.03
62789;BME280;66401;42.016;21.454;2023-03-25T06:29:38;97987.56;;;12.55;59.43
62789;BME280;66401;42.016;21.454;2023-03-25T06:32:04;97986.69;;;12.61;58.73
62789;BME280;66401;42.016;21.454;2023-03-25T06:34:30;97986.47;;;12.63;60.02
62789;BME280;66401;42.016;21.454;2023-03-25T06:37:01;97988.88;;;12.64;59.92
62789;BME280;66401;42.016;21.454;2023-03-25T06:39:27;97989.47;;;12.66;60.78
62789;BME280;66401;42.016;21.454;2023-03-25T06:41:57;97978.06;;;12.60;61.66
62789;BME280;66401;42.016;21.454;2023-03-25T06:44:22;97977.44;;;12.65;60.60
62789;BME280;66401;42.016;21.454;2023-03-25T06:46:48;97992.41;;;12.76;60.83
62789;BME280;66401;42.016;21.454;2023-03-25T06:49:13;97982.97;;;12.75;61.94
62789;BME280;66401;42.016;21.454;2023-03-25T06:51:39;97955.72;;;12.65;61.70
62789;BME280;66401;42.016;21.454;2023-03-25T06:54:06;97976.09;;;13.06;61.44
62789;BME280;66401;42.016;21.454;2023-03-25T06:56:31;97989.63;;;13.03;63.09
62789;BME280;66401;42.016;21.454;2023-03-25T06:58:57;97993.91;;;13.22;68.11
62789;BME280;66401;42.016;21.454;2023-03-25T07:01:22;97967.03;;;12.20;75.07
62789;BME280;66401;42.016;21.454;2023-03-25T07:03:48;97991.78;;;12.11;69.38
62789;BME280;66401;42.016;21.454;2023-03-25T07:06:16;97999.38;;;12.57;80.13
62789;BME280;66401;42.016;21.454;2023-03-25T07:08:42;97944.06;;;12.36;78.79
62789;BME280;66401;42.016;21.454;2023-03-25T07:11:09;97958.44;;;12.45;78.60
62789;BME280;66401;42.016;21.454;2023-03-25T07:13:36;97956.59;;;12.52;69.89
62789;BME280;66401;42.016;21.454;2023-03-25T07:16:02;97973.19;;;12.96;70.73
62789;BME280;66401;42.016;21.454;2023-03-25T07:18:28;97961.84;;;13.02;74.04
62789;BME280;66401;42.016;21.454;2023-03-25T07:20:53;97937.63;;;13.13;68.53
62789;BME280;66401;42.016;21.454;2023-03-25T07:23:19;97954.16;;;13.50;71.46
62789;BME280;66401;42.016;21.454;2023-03-25T07:25:44;97967.91;;;13.82;68.55
62789;BME280;66401;42.016;21.454;2023-03-25T07:28:10;97957.72;;;13.92;68.63
62789;BME280;66401;42.016;21.454;2023-03-25T07:30:35;97903.56;;;14.04;65.75
62789;BME280;66401;42.016;21.454;2023-03-25T07:33:01;97985.66;;;15.24;63.02
62789;BME280;66401;42.016;21.454;2023-03-25T07:35:26;97967.34;;;14.58;59.19
62789;BME280;66401;42.016;21.454;2023-03-25T07:37:52;97989.38;;;14.93;65.16
62789;BME280;66401;42.016;21.454;2023-03-25T07:40:17;97987.34;;;14.95;62.50
62789;BME280;66401;42.016;21.454;2023-03-25T07:42:43;97977.06;;;14.81;62.70
62789;BME280;66401;42.016;21.454;2023-03-25T07:45:09;97984.44;;;14.73;62.92
62789;BME280;66401;42.016;21.454;2023-03-25T07:47:35;97977.16;;;13.85;58.99
62789;BME280;66401;42.016;21.454;2023-03-25T07:50:00;97968.41;;;14.39;60.77
62789;BME280;66401;42.016;21.454;2023-03-25T07:52:26;97974.69;;;14.20;58.23
62789;BME280;66401;42.016;21.454;2023-03-25T07:54:51;97967.47;;;14.75;60.02
62789;BME280;66401;42.016;21.454;2023-03-25T07:57:17;97972.84;;;14.92;62.41
62789;BME280;66401;42.016;21.454;2023-03-25T07:59:42;97964.53;;;14.95;63.68
62789;BME280;66401;42.016;21.454;2023-03-25T08:02:11;97967.66;;;15.15;58.54
62789;BME280;66401;42.016;21.454;2023-03-25T08:04:38;97974.91;;;15.13;60.45
62789;BME280;66401;42.016;21.454;2023-03-25T08:07:04;97978.72;;;15.64;60.47
62789;BME280;66401;42.016;21.454;2023-03-25T08:09:29;97971.59;;;15.53;55.82
62789;BME280;66401;42.016;21.454;2023-03-25T08:11:55;97968.53;;;16.08;57.63
62789;BME280;66401;42.016;21.454;2023-03-25T08:14:21;97963.88;;;16.27;57.61
62789;BME280;66401;42.016;21.454;2023-03-25T08:16:46;97960.84;;;16.18;54.85
62789;BME280;66401;42.016;21.454;2023-03-25T08:19:12;97965.97;;;16.87;55.29
62789;BME280;66401;42.016;21.454;2023-03-25T08:21:37;97961.94;;;16.79;52.71
62789;BME280;66401;42.016;21.454;2023-03-25T08:24:03;97953.97;;;16.46;54.46
62789;BME280;66401;42.016;21.454;2023-03-25T08:26:30;97948.44;;;16.93;53.73
62789;BME280;66401;42.016;21.454;2023-03-25T08:28:56;97949.31;;;17.15;54.62
62789;BME280;66401;42.016;21.454;2023-03-25T08:31:26;97939.78;;;16.92;51.22
62789;BME280;66401;42.016;21.454;2023-03-25T08:33:56;97933.31;;;17.38;54.60
62789;BME280;66401;42.016;21.454;2023-03-25T08:36:22;97929.69;;;17.06;50.28
62789;BME280;66401;42.016;21.454;2023-03-25T08:38:50;97921.19;;;16.99;52.96
62789;BME280;66401;42.016;21.454;2023-03-25T08:41:16;97935.75;;;17.23;51.89
62789;BME280;66401;42.016;21.454;2023-03-25T08:43:42;97933.25;;;17.55;52.36
62789;BME280;66401;42.016;21.454;2023-03-25T08:46:08;97926.31;;;17.88;49.92
62789;BME280;66401;42.016;21.454;2023-03-25T08:48:34;97920.03;;;17.94;50.07
62789;BME280;66401;42.016;21.454;2023-03-25T08:51:00;97916.38;;;18.22;50.00
62789;BME280;66401;42.016;21.454;2023-03-25T08:53:25;97925.44;;;18.31;49.31
62789;BME280;66401;42.016;21.454;2023-03-25T08:55:56;97914.47;;;17.90;50.84
62789;BME280;66401;42.016;21.454;2023-03-25T08:58:22;97920.16;;;18.04;50.04
62789;BME280;66401;42.016;21.454;2023-03-25T09:00:52;97912.22;;;18.26;50.41
62789;BME280;66401;42.016;21.454;2023-03-25T09:03:19;97914.81;;;17.33;49.46
62789;BME280;66401;42.016;21.454;2023-03-25T09:05:46;97905.75;;;17.24;49.53
62789;BME280;66401;42.016;21.454;2023-03-25T09:08:12;97899.16;;;17.43;48.58
62789;BME280;66401;42.016;21.454;2023-03-25T09:10:38;97898.31;;;16.99;49.54
62789;BME280;66401;42.016;21.454;2023-03-25T09:13:04;97878.72;;;16.90;50.81
62789;BME280;66401;42.016;21.454;2023-03-25T09:15:29;97893.72;;;17.72;50.17
62789;BME280;66401;42.016;21.454;2023-03-25T09:17:55;97884.75;;;18.22;48.07
62789;BME280;66401;42.016;21.454;2023-03-25T09:20:21;97879.00;;;18.25;47.31
62789;BME280;66401;42.016;21.454;2023-03-25T09:22:46;97888.31;;;18.70;46.78
62789;BME280;66401;42.016;21.454;2023-03-25T09:25:12;97880.06;;;18.02;47.97
62789;BME280;66401;42.016;21.454;2023-03-25T09:27:38;97896.31;;;18.16;48.55
62789;BME280;66401;42.016;21.454;2023-03-25T09:30:05;97884.19;;;18.52;47.14
62789;BME280;66401;42.016;21.454;2023-03-25T09:32:31;97874.53;;;18.30;48.10
62789;BME280;66401;42.016;21.454;2023-03-25T09:34:57;97891.38;;;17.76;48.37
62789;BME280;66401;42.016;21.454;2023-03-25T09:37:22;97899.47;;;18.18;49.38
62789;BME280;66401;42.016;21.454;2023-03-25T09:39:48;97872.69;;;17.33;49.98
62789;BME280;66401;42.016;21.454;2023-03-25T09:50:47;97875.31;;;17.99;47.14
62789;BME280;66401;42.016;21.454;2023-03-25T09:55:45;97865.81;;;18.25;47.69
62789;BME280;66401;42.016;21.454;2023-03-25T09:58:29;97868.34;;;18.79;45.65
62789;BME280;66401;42.016;21.454;2023-03-25T10:11:06;97837.63;;;24.75;34.03
62789;BME280;66401;42.016;21.454;2023-03-25T10:13:53;97848.34;;;22.67;36.83
62789;BME280;66401;42.016;21.454;2023-03-25T10:22:18;97839.31;;;20.60;40.81
62789;BME280;66401;42.016;21.454;2023-03-25T10:25:00;97827.94;;;20.60;41.28
62789;BME280;66401;42.016;21.454;2023-03-25T10:27:37;97823.38;;;20.91;42.64
62789;BME280;66401;42.016;21.454;2023-03-25T10:32:45;97806.75;;;21.50;40.88
62789;BME280;66401;42.016;21.454;2023-03-25T10:35:27;97811.50;;;23.37;37.38
62789;BME280;66401;42.016;21.454;2023-03-25T10:37:58;97806.13;;;23.80;35.67
62789;BME280;66401;42.016;21.454;2023-03-25T10:40:27;97813.38;;;23.55;36.92
62789;BME280;66401;42.016;21.454;2023-03-25T10:45:29;97800.84;;;22.36;39.47
62789;BME280;66401;42.016;21.454;2023-03-25T10:48:03;97800.06;;;22.02;39.09
62789;BME280;66401;42.016;21.454;2023-03-25T10:50:31;97781.25;;;21.59;40.66
62789;BME280;66401;42.016;21.454;2023-03-25T10:52:57;97789.47;;;21.62;41.15
62789;BME280;66401;42.016;21.454;2023-03-25T10:55:27;97771.63;;;21.24;41.57
62789;BME280;66401;42.016;21.454;2023-03-25T10:57:54;97787.25;;;21.75;41.77
62789;BME280;66401;42.016;21.454;2023-03-25T11:00:21;97782.31;;;21.97;41.94
62789;BME280;66401;42.016;21.454;2023-03-25T11:02:51;97780.09;;;21.21;43.38
62789;BME280;66401;42.016;21.454;2023-03-25T11:05:18;97776.84;;;20.69;42.73
62789;BME280;66401;42.016;21.454;2023-03-25T11:07:49;97775.41;;;21.07;41.74
62789;BME280;66401;42.016;21.454;2023-03-25T11:10:24;97773.81;;;21.01;41.71
62789;BME280;66401;42.016;21.454;2023-03-25T11:12:51;97773.06;;;20.96;42.43
62789;BME280;66401;42.016;21.454;2023-03-25T11:15:25;97777.34;;;20.81;40.65
62789;BME280;66401;42.016;21.454;2023-03-25T11:18:00;97776.06;;;20.53;41.91
62789;BME280;66401;42.016;21.454;2023-03-25T11:20:36;97777.16;;;20.47;43.39
62789;BME280;66401;42.016;21.454;2023-03-25T11:23:50;97767.28;;;20.73;42.78
62789;BME280;66401;42.016;21.454;2023-03-25T11:25:53;97755.78;;;21.08;41.01
62789;BME280;66401;42.016;21.454;2023-03-25T11:28:30;97753.06;;;20.59;42.42
62789;BME280;66401;42.016;21.454;2023-03-25T11:33:33;97757.50;;;20.79;41.96
62789;BME280;66401;42.016;21.454;2023-03-25T11:36:27;97746.94;;;20.69;42.40
62789;BME280;66401;42.016;21.454;2023-03-25T11:39:13;97749.31;;;20.70;41.62
62789;BME280;66401;42.016;21.454;2023-03-25T11:41:41;97743.25;;;20.65;41.17
62789;BME280;66401;42.016;21.454;2023-03-25T11:44:07;97737.34;;;20.83;39.16
62789;BME280;66401;42.016;21.454;2023-03-25T11:46:44;97720.66;;;20.93;40.68
62789;BME280;66401;42.016;21.454;2023-03-25T11:49:15;97714.94;;;20.55;39.15
62789;BME280;66401;42.016;21.454;2023-03-25T11:51:44;97694.25;;;20.72;38.12
62789;BME280;66401;42.016;21.454;2023-03-25T11:54:15;97683.25;;;20.40;40.49
62789;BME280;66401;42.016;21.454;2023-03-25T11:56:42;97681.19;;;19.96;39.92
62789;BME280;66401;42.016;21.454;2023-03-25T11:59:23;97673.81;;;19.83;37.07
62789;BME280;66401;42.016;21.454;2023-03-25T12:01:51;97671.69;;;20.00;40.45
62789;BME280;66401;42.016;21.454;2023-03-25T12:04:22;97667.44;;;20.09;40.04
62789;BME280;66401;42.016;21.454;2023-03-25T12:09:23;97643.09;;;20.22;38.63
62789;BME280;66401;42.016;21.454;2023-03-25T12:12:13;97635.19;;;20.17;38.23
62789;BME280;66401;42.016;21.454;2023-03-25T12:15:35;97631.41;;;20.39;38.77
62789;BME280;66401;42.016;21.454;2023-03-25T12:26:12;97644.09;;;21.46;40.20
62789;BME280;66401;42.016;21.454;2023-03-25T12:29:05;97640.38;;;22.05;35.76
62789;BME280;66401;42.016;21.454;2023-03-25T12:31:42;97636.94;;;22.33;35.42
62789;BME280;66401;42.016;21.454;2023-03-25T12:34:13;97634.28;;;22.33;36.20
62789;BME280;66401;42.016;21.454;2023-03-25T12:39:17;97624.28;;;21.38;37.15
62789;BME280;66401;42.016;21.454;2023-03-25T12:44:45;97604.63;;;21.05;34.48
62789;BME280;66401;42.016;21.454;2023-03-25T12:47:23;97597.94;;;21.12;34.93
62789;BME280;66401;42.016;21.454;2023-03-25T12:50:16;97599.47;;;21.58;31.97
62789;BME280;66401;42.016;21.454;2023-03-25T12:53:10;97592.72;;;21.70;31.63
62789;BME280;66401;42.016;21.454;2023-03-25T13:07:11;97575.28;;;22.41;33.00
62789;BME280;66401;42.016;21.454;2023-03-25T13:10:06;97571.09;;;20.95;34.29
62789;BME280;66401;42.016;21.454;2023-03-25T13:12:40;97564.66;;;21.40;33.53
62789;BME280;66401;42.016;21.454;2023-03-25T13:15:14;97557.84;;;21.87;33.81
62789;BME280;66401;42.016;21.454;2023-03-25T13:20:27;97553.56;;;21.91;34.32
62789;BME280;66401;42.016;21.454;2023-03-25T13:22:56;97550.16;;;21.62;31.82
62789;BME280;66401;42.016;21.454;2023-03-25T13:26:05;97547.28;;;21.58;33.89
62789;BME280;66401;42.016;21.454;2023-03-25T13:28:39;97527.31;;;21.03;34.48
62789;BME280;66401;42.016;21.454;2023-03-25T13:31:15;97535.81;;;21.05;33.91
62789;BME280;66401;42.016;21.454;2023-03-25T13:37:01;97527.69;;;21.25;33.52
62789;BME280;66401;42.016;21.454;2023-03-25T13:42:54;97528.31;;;21.46;34.54
62789;BME280;66401;42.016;21.454;2023-03-25T13:45:24;97525.38;;;20.79;35.13
62789;BME280;66401;42.016;21.454;2023-03-25T13:48:21;97522.75;;;20.79;35.36
62789;BME280;66401;42.016;21.454;2023-03-25T13:50:51;97514.91;;;21.32;35.02
62789;BME280;66401;42.016;21.454;2023-03-25T13:53:21;97521.88;;;21.23;34.17
62789;BME280;66401;42.016;21.454;2023-03-25T14:01:28;97505.66;;;21.35;32.88
62789;BME280;66401;42.016;21.454;2023-03-25T14:12:49;97493.75;;;22.04;33.25
62789;BME280;66401;42.016;21.454;2023-03-25T14:15:13;97481.34;;;21.28;34.00
62789;BME280;66401;42.016;21.454;2023-03-25T14:17:41;97481.88;;;21.54;34.28
62789;BME280;66401;42.016;21.454;2023-03-25T14:20:10;97488.22;;;21.29;34.18
62789;BME280;66401;42.016;21.454;2023-03-25T14:22:38;97478.97;;;21.26;35.24
62789;BME280;66401;42.016;21.454;2023-03-25T14:25:18;97474.44;;;21.56;34.28
62789;BME280;66401;42.016;21.454;2023-03-25T14:27:48;97475.31;;;21.94;34.79
62789;BME280;66401;42.016;21.454;2023-03-25T14:30:19;97467.44;;;21.65;33.47
62789;BME280;66401;42.016;21.454;2023-03-25T14:32:46;97469.91;;;21.80;33.60
62789;BME280;66401;42.016;21.454;2023-03-25T14:38:18;97445.00;;;21.81;33.24
62789;BME280;66401;42.016;21.454;2023-03-25T14:43:31;97452.00;;;21.72;32.64
62789;BME280;66401;42.016;21.454;2023-03-25T14:48:40;97448.28;;;21.73;32.35
62789;BME280;66401;42.016;21.454;2023-03-25T14:53:39;97451.03;;;21.10;33.11
62789;BME280;66401;42.016;21.454;2023-03-25T14:56:16;97447.56;;;21.14;32.92
62789;BME280;66401;42.016;21.454;2023-03-25T14:58:43;97437.31;;;21.03;34.20
62789;BME280;66401;42.016;21.454;2023-03-25T15:01:12;97444.91;;;20.85;33.81
62789;BME280;66401;42.016;21.454;2023-03-25T15:03:40;97445.88;;;20.95;32.26
62789;BME280;66401;42.016;21.454;2023-03-25T15:06:17;97436.38;;;20.60;31.65
62789;BME280;66401;42.016;21.454;2023-03-25T15:08:53;97442.94;;;20.62;33.07
62789;BME280;66401;42.016;21.454;2023-03-25T15:11:31;97443.34;;;20.40;33.13
62789;BME280;66401;42.016;21.454;2023-03-25T15:14:01;97436.56;;;20.24;33.61
62789;BME280;66401;42.016;21.454;2023-03-25T15:16:33;97436.81;;;20.27;34.58
62789;BME280;66401;42.016;21.454;2023-03-25T15:19:11;97427.41;;;20.11;34.13